Time;durP1;ratioP1;P1;durP2;ratioP2;P2;SDS_P1;SDS_P2;PMS_P1;PMS_P2;Temp;Humidity;BMP_temperature;BMP_pressure;BME280_temperature;BME280_humidity;BME280_pressure;Samples;Min_cycle;Max_cycle;Signal;HPM_P1;HPM_P2
2023/03/26 00:08:03;;;;;;;3.60;1.40;;;;;;;21.72;38.87;100481.34;21084947;28;20058;-71
2023/03/26 00:18:08;;;;;;;2.75;1.50;;;;;;;21.57;38.43;100459.25;21080709;28;20040;-72
2023/03/26 00:28:09;;;;;;;2.83;1.20;;;;;;;21.78;38.86;100482.94;21084504;28;20024;-70
2023/03/26 00:38:10;;;;;;;9.20;2.20;;;;;;;21.96;38.79;100495.25;21064913;28;20048;-68
2023/03/26 00:48:12;;;;;;;4.95;1.83;;;;;;;22.06;38.37;100513.78;21057973;28;20044;-68
2023/03/26 00:58:15;;;;;;;3.42;1.52;;;;;;;22.13;38.65;100521.78;21060751;28;20048;-67
2023/03/26 01:08:37;;;;;;;4.07;1.55;;;;;;;22.17;38.79;100523.66;21055502;28;20079;-70
2023/03/26 01:18:39;;;;;;;3.33;1.88;;;;;;;22.03;38.50;100497.66;21059928;28;20047;-68
2023/03/26 01:28:41;;;;;;;3.25;2.03;;;;;;;22.24;38.33;100538.09;21079099;28;20077;-69
2023/03/26 01:38:58;;;;;;;3.47;1.90;;;;;;;22.15;38.16;100548.25;21033624;28;20074;-69
2023/03/26 01:49:01;;;;;;;2.88;1.70;;;;;;;22.19;37.94;100556.84;21077149;28;20089;-69
2023/03/26 01:59:06;;;;;;;3.63;1.35;;;;;;;21.22;38.10;100413.97;21051762;28;20032;-70
2023/03/26 02:09:16;;;;;;;3.35;2.42;;;;;;;21.55;38.09;100464.28;21050316;28;20822;-67
2023/03/26 02:19:20;;;;;;;4.05;1.80;;;;;;;22.21;37.75;100599.97;21050854;28;20415;-68
2023/03/26 02:29:21;;;;;;;2.45;1.50;;;;;;;21.98;37.61;100543.13;21045970;28;20086;-70
2023/03/26 02:39:23;;;;;;;3.22;1.80;;;;;;;22.09;37.91;100566.13;21047099;28;20636;-70
2023/03/26 02:49:26;;;;;;;4.07;2.10;;;;;;;22.04;38.23;100532.75;21052303;28;20047;-70
2023/03/26 02:59:27;;;;;;;7.20;1.77;;;;;;;21.99;38.33;100542.00;21056710;28;20040;-72
2023/03/26 03:09:29;;;;;;;2.75;1.77;;;;;;;22.08;38.16;100542.16;21055090;28;20113;-71
2023/03/26 03:19:30;;;;;;;7.63;2.35;;;;;;;21.96;38.13;100499.97;21058661;28;20032;-72
2023/03/26 03:29:32;;;;;;;4.50;1.92;;;;;;;22.05;38.15;100532.44;21068429;28;20043;-71
2023/03/26 03:39:33;;;;;;;3.55;2.50;;;;;;;22.13;37.80;100581.16;21071082;28;20632;-73
2023/03/26 03:49:35;;;;;;;3.20;2.22;;;;;;;21.87;37.93;100521.28;21084314;28;20040;-71
2023/03/26 03:59:36;;;;;;;4.47;2.42;;;;;;;22.04;37.75;100532.75;21072245;28;20048;-72
2023/03/26 04:09:37;;;;;;;5.43;2.67;;;;;;;21.96;37.85;100494.41;21067484;28;20475;-72
2023/03/26 04:19:39;;;;;;;3.08;2.17;;;;;;;22.02;37.48;100535.81;21069952;28;20027;-71
2023/03/26 04:29:43;;;;;;;4.00;2.30;;;;;;;22.13;37.75;100656.41;21082523;28;20491;-71
2023/03/26 04:39:44;;;;;;;4.43;2.53;;;;;;;21.84;37.81;100609.03;21078556;28;20479;-73
2023/03/26 04:49:47;;;;;;;5.20;2.38;;;;;;;21.71;37.63;100591.06;21077664;28;20399;-73
2023/03/26 04:59:51;;;;;;;3.92;2.75;;;;;;;22.11;37.52;100652.22;21071279;28;20044;-71
2023/03/26 05:09:53;;;;;;;6.47;3.22;;;;;;;22.10;37.51;100668.09;21074645;28;20048;-72
2023/03/26 05:19:57;;;;;;;6.88;3.70;;;;;;;22.07;37.29;100649.19;21076338;28;20188;-71
2023/03/26 05:30:03;;;;;;;8.90;3.20;;;;;;;22.09;37.24;100666.44;21064164;28;20074;-71
2023/03/26 05:40:10;;;;;;;4.82;2.88;;;;;;;21.98;37.28;100635.06;21068563;28;20040;-72
2023/03/26 05:50:11;;;;;;;6.03;3.20;;;;;;;22.02;37.11;100635.31;21073631;28;20048;-72
2023/03/26 06:00:13;;;;;;;5.88;3.45;;;;;;;22.06;37.52;100689.31;21070166;28;20069;-72
2023/03/26 06:10:15;;;;;;;4.35;2.83;;;;;;;22.08;37.03;100684.25;21071740;28;20487;-71
2023/03/26 06:20:16;;;;;;;5.70;3.35;;;;;;;22.03;37.16;100679.56;21066480;28;20066;-71
2023/03/26 06:30:18;;;;;;;4.63;3.15;;;;;;;21.65;37.44;100639.59;21060003;28;20568;-72
2023/03/26 06:40:19;;;;;;;3.72;2.83;;;;;;;22.00;37.39;100690.50;21071042;28;20047;-71
2023/03/26 06:50:21;;;;;;;5.03;3.10;;;;;;;21.95;37.48;100726.78;21067506;28;20074;-71
2023/03/26 07:00:22;;;;;;;4.65;2.92;;;;;;;21.83;37.65;100702.91;21073422;28;20052;-71
2023/03/26 07:10:24;;;;;;;5.97;3.58;;;;;;;21.56;37.58;100667.22;21085297;28;20036;-70
2023/03/26 07:20:28;;;;;;;4.00;3.25;;;;;;;21.97;37.50;100736.50;21084017;28;20121;-72
2023/03/26 07:30:48;;;;;;;8.13;4.07;;;;;;;22.03;37.63;100701.88;21085281;28;20024;-72
2023/03/26 07:41:05;;;;;;;6.63;3.97;;;;;;;21.99;37.30;100711.09;21081840;28;20036;-72
2023/03/26 07:51:07;;;;;;;7.57;4.13;;;;;;;21.83;37.74;100736.34;21066145;28;20052;-70
2023/03/26 08:01:21;;;;;;;5.72;3.72;;;;;;;22.13;37.69;100761.44;21076972;28;20433;-72
2023/03/26 08:11:42;;;;;;;8.55;4.40;;;;;;;22.13;37.31;100775.38;21074927;28;20056;-72
2023/03/26 08:21:52;;;;;;;7.38;4.70;;;;;;;22.18;37.84;100792.91;21080106;28;20040;-71
2023/03/26 08:31:56;;;;;;;6.22;4.18;;;;;;;22.21;37.39;100803.44;21081257;28;20127;-72
2023/03/26 08:42:27;;;;;;;5.78;3.75;;;;;;;22.25;37.64;100821.25;21079338;28;20036;-72
2023/03/26 08:52:53;;;;;;;6.25;4.25;;;;;;;22.19;37.99;100852.25;21077207;28;20395;-72
2023/03/26 09:03:24;;;;;;;5.82;4.38;;;;;;;21.92;38.43;100858.28;21069719;28;20584;-72
2023/03/26 09:13:56;;;;;;;6.30;4.07;;;;;;;22.02;38.33;100888.84;21063483;28;20563;-72
2023/03/26 09:24:26;;;;;;;5.20;3.92;;;;;;;22.02;38.35;100906.41;21071703;28;20093;-73
2023/03/26 09:34:51;;;;;;;5.22;3.95;;;;;;;22.03;38.77;100923.97;21075318;28;20040;-72
2023/03/26 09:45:02;;;;;;;4.07;3.67;;;;;;;22.03;38.60;100951.81;21073155;28;20097;-72
2023/03/26 09:55:14;;;;;;;4.43;3.50;;;;;;;21.97;38.75;100969.69;21072689;28;20441;-73
2023/03/26 10:05:50;;;;;;;4.43;3.30;;;;;;;21.98;38.33;100996.44;21066813;28;20101;-72
2023/03/26 10:16:23;;;;;;;4.03;3.20;;;;;;;21.98;38.18;101019.56;21068285;28;20544;-72
2023/03/26 10:26:44;;;;;;;4.72;3.42;;;;;;;21.97;38.44;101056.06;21013489;28;20833;-72
2023/03/26 10:37:19;;;;;;;3.88;3.20;;;;;;;21.91;38.42;101087.88;21064160;28;20040;-73
2023/03/26 10:48:07;;;;;;;3.47;2.83;;;;;;;21.90;38.16;101119.63;21069415;28;20129;-71
2023/03/26 10:58:24;;;;;;;3.03;2.70;;;;;;;21.54;37.92;101095.50;21079294;28;20044;-71
2023/03/26 11:08:37;;;;;;;2.45;2.15;;;;;;;21.88;37.95;101160.88;21074535;28;20044;-70
2023/03/26 11:19:11;;;;;;;3.70;2.38;;;;;;;21.86;37.81;101196.53;21071625;28;20040;-72
2023/03/26 11:29:30;;;;;;;2.42;1.90;;;;;;;21.92;40.86;101204.59;21076111;28;20117;-74
2023/03/26 11:39:52;;;;;;;3.58;2.55;;;;;;;21.83;40.54;101209.91;21061912;28;20608;-71
2023/03/26 11:49:54;;;;;;;5.35;2.55;;;;;;;;;;21041632;28;20471;-70
2023/03/26 12:00:18;;;;;;;6.40;2.42;;;;;;;22.02;40.49;101262.25;20991190;28;20079;-72
2023/03/26 12:10:32;;;;;;;6.72;2.28;;;;;;;22.07;40.32;101282.59;21066305;28;20036;-70
2023/03/26 12:20:35;;;;;;;7.57;2.42;;;;;;;22.11;40.01;101280.09;21045365;28;20040;-69
2023/03/26 12:30:43;;;;;;;5.43;2.53;;;;;;;22.08;40.14;101289.84;21060053;28;20090;-69
2023/03/26 12:40:45;;;;;;;5.55;2.85;;;;;;;22.11;40.11;101315.47;21072734;28;20066;-73
2023/03/26 12:51:08;;;;;;;7.63;2.33;;;;;;;22.14;40.04;101315.78;21068005;28;20040;-72
2023/03/26 13:01:15;;;;;;;9.43;2.28;;;;;;;22.17;40.02;101314.38;21078711;28;20065;-71
2023/03/26 13:11:28;;;;;;;7.18;2.28;;;;;;;22.17;39.73;101326.38;21079784;28;20040;-70
2023/03/26 13:21:53;;;;;;;4.47;2.20;;;;;;;22.21;38.94;101333.06;21071918;28;20040;-70
2023/03/26 13:32:29;;;;;;;5.45;2.20;;;;;;;22.28;38.84;101330.84;21075783;28;20040;-71
2023/03/26 13:43:06;;;;;;;4.40;1.95;;;;;;;22.37;38.26;101330.28;20987884;28;20094;-70
2023/03/26 13:53:45;;;;;;;3.85;1.75;;;;;;;22.35;37.74;101338.06;21057952;28;20052;-70
2023/03/26 14:04:05;;;;;;;3.00;1.57;;;;;;;22.44;37.68;101348.34;21067353;28;20447;-70
2023/03/26 14:14:22;;;;;;;3.08;2.00;;;;;;;22.28;37.48;101330.00;21075989;28;20480;-70
2023/03/26 14:24:24;;;;;;;2.58;1.58;;;;;;;22.50;37.76;101357.56;21053705;28;20383;-71
2023/03/26 14:34:34;;;;;;;1.45;1.35;;;;;;;22.50;37.42;101352.00;21068187;28;20040;-70
2023/03/26 14:44:53;;;;;;;5.18;1.40;;;;;;;22.50;36.91;101366.78;21051304;28;20028;-71
2023/03/26 14:55:00;;;;;;;2.13;1.40;;;;;;;22.21;36.64;101305.19;21074824;28;20172;-70
2023/03/26 15:05:23;;;;;;;5.05;1.27;;;;;;;22.47;36.86;101360.91;21053973;28;20085;-69
2023/03/26 15:16:02;;;;;;;2.50;1.20;;;;;;;22.46;36.53;101350.88;20990402;28;20045;-70
2023/03/26 15:26:26;;;;;;;1.33;1.23;;;;;;;22.44;36.37;101353.09;20997625;28;20101;-70
2023/03/26 15:36:52;;;;;;;2.72;1.23;;;;;;;22.41;36.33;101332.22;21035685;28;20050;-70
2023/03/26 15:47:35;;;;;;;1.38;1.17;;;;;;;22.32;36.79;101315.22;21086890;28;20040;-69
2023/03/26 15:58:03;;;;;;;1.75;1.25;;;;;;;22.32;36.65;101320.78;21072567;28;20046;-71
2023/03/26 16:08:29;;;;;;;1.27;0.80;;;;;;;22.29;36.81;101329.72;21085199;28;20075;-70
2023/03/26 16:18:32;;;;;;;0.98;0.88;;;;;;;22.14;36.27;101293.50;21036463;28;20048;-71
2023/03/26 16:28:45;;;;;;;3.17;1.25;;;;;;;21.29;36.85;101165.06;21084849;28;20040;-71
2023/03/26 16:38:49;;;;;;;2.92;1.15;;;;;;;22.41;36.92;101343.38;21083444;28;20043;-72
2023/03/26 16:49:14;;;;;;;2.25;1.02;;;;;;;22.37;36.09;101335.84;21077411;27;20062;-69
2023/03/26 16:59:49;;;;;;;3.70;1.20;;;;;;;22.20;36.20;101325.81;21081982;28;20051;-69
2023/03/26 17:10:24;;;;;;;3.72;1.23;;;;;;;22.22;35.94;101331.09;21080631;28;20077;-69
2023/03/26 17:20:31;;;;;;;1.80;1.00;;;;;;;22.21;36.21;101327.47;21081879;28;20040;-68
2023/03/26 17:31:02;;;;;;;3.38;1.38;;;;;;;22.00;36.45;101295.16;21079951;28;20109;-69
2023/03/26 17:41:05;;;;;;;2.70;1.17;;;;;;;22.08;36.58;101314.94;21079565;28;20032;-69
2023/03/26 17:51:39;;;;;;;2.13;1.20;;;;;;;22.03;36.69;101291.78;21077411;28;20048;-69
2023/03/26 18:01:46;;;;;;;3.03;1.52;;;;;;;22.01;36.72;101288.47;21043871;28;20090;-69
2023/03/26 18:12:17;;;;;;;1.73;1.08;;;;;;;22.06;36.92;101308.78;21078301;28;20044;-70
2023/03/26 18:22:28;;;;;;;2.63;0.93;;;;;;;21.70;36.69;101266.19;21068642;28;20062;-69
2023/03/26 18:32:32;;;;;;;1.50;0.93;;;;;;;21.95;37.00;101289.59;21075815;28;20559;-69
2023/03/26 18:42:33;;;;;;;1.10;1.00;;;;;;;22.07;36.59;101315.19;21075307;28;20048;-68
2023/03/26 18:52:37;;;;;;;4.82;0.80;;;;;;;22.06;36.51;101307.97;21076329;28;20040;-68
2023/03/26 19:02:42;;;;;;;1.00;0.90;;;;;;;22.08;36.78;101300.16;21087808;28;20043;-68
2023/03/26 19:12:43;;;;;;;0.80;0.70;;;;;;;22.07;36.33;101306.84;21091541;28;20399;-69
2023/03/26 19:22:49;;;;;;;1.02;0.93;;;;;;;22.07;36.42;101309.63;21086781;28;20089;-69
2023/03/26 19:32:57;;;;;;;0.80;0.80;;;;;;;22.09;36.26;101301.84;21086989;28;20102;-69
2023/03/26 19:42:58;;;;;;;0.70;0.70;;;;;;;21.86;36.50;101247.53;21087195;28;20403;-68
2023/03/26 19:53:17;;;;;;;1.50;0.80;;;;;;;22.08;36.34;101306.59;21083568;28;20420;-68
2023/03/26 20:03:37;;;;;;;3.05;0.90;;;;;;;22.07;36.21;101315.19;21078596;28;20097;-69
2023/03/26 20:13:39;;;;;;;5.22;1.05;;;;;;;22.06;36.24;101294.84;21077530;28;20055;-69
2023/03/26 20:23:40;;;;;;;5.78;1.38;;;;;;;21.85;36.00;101261.72;21019523;28;20037;-68
2023/03/26 20:33:42;;;;;;;2.92;1.08;;;;;;;22.15;36.30;101311.06;21050287;28;20060;-71
2023/03/26 20:43:46;;;;;;;5.00;1.40;;;;;;;22.22;36.34;101292.06;21065936;28;20032;-68
2023/03/26 20:53:47;;;;;;;5.80;1.30;;;;;;;22.21;36.42;101291.25;21073913;28;20044;-69
2023/03/26 21:03:49;;;;;;;6.40;1.88;;;;;;;22.13;35.93;101275.13;21062712;28;20043;-71
2023/03/26 21:14:07;;;;;;;7.18;2.47;;;;;;;22.26;38.71;101288.44;21077434;28;20113;-69
2023/03/26 21:24:14;;;;;;;8.75;2.17;;;;;;;22.37;39.00;101302.38;21056056;28;20036;-69
2023/03/26 21:34:19;;;;;;;4.95;1.80;;;;;;;22.30;38.97;101295.13;21064164;28;20048;-69
2023/03/26 21:44:20;;;;;;;6.45;2.00;;;;;;;22.44;38.56;101319.63;21066245;28;20075;-69
2023/03/26 21:54:29;;;;;;;5.07;1.80;;;;;;;22.43;37.97;101324.38;21013520;28;20044;-69
2023/03/26 22:04:55;;;;;;;7.95;1.70;;;;;;;22.41;37.41;101336.97;21059455;28;20048;-69
2023/03/26 22:14:56;;;;;;;12.48;3.10;;;;;;;22.47;37.01;101335.81;21070255;28;20043;-72
2023/03/26 22:24:58;;;;;;;13.05;3.85;;;;;;;22.49;36.84;101350.31;21057569;28;20043;-73
2023/03/26 22:35:03;;;;;;;14.95;3.42;;;;;;;22.27;37.17;101309.66;21059600;28;20109;-71
2023/03/26 22:45:05;;;;;;;11.32;3.20;;;;;;;22.51;38.26;101348.09;21067663;28;20061;-68
2023/03/26 22:55:07;;;;;;;12.90;3.90;;;;;;;22.46;40.38;101339.72;21044855;28;20561;-67
2023/03/26 23:05:10;;;;;;;9.80;2.47;;;;;;;22.45;40.03;101354.75;21034089;28;20568;-68
2023/03/26 23:15:11;;;;;;;13.27;2.65;;;;;;;22.51;41.09;101360.06;21046554;28;20056;-68
2023/03/26 23:25:13;;;;;;;12.90;3.17;;;;;;;22.59;41.25;101378.19;21047852;28;20029;-70
2023/03/26 23:35:14;;;;;;;8.77;2.50;;;;;;;22.47;41.37;101370.13;21042481;28;20555;-69
2023/03/26 23:45:16;;;;;;;8.48;2.22;;;;;;;22.56;39.14;101401.91;21057897;28;20081;-69
2023/03/26 23:55:20;;;;;;;8.32;2.13;;;;;;;22.51;39.18;101389.91;21078021;28;20099;-68
